TimeAKDT,TemperatureF,Dew PointF,Humidity,Sea Level PressureIn,VisibilityMPH,Wind Direction,Wind SpeedMPH,Gust SpeedMPH,PrecipitationIn,Events,Conditions,WindDirDegrees,DateUTC
12:16 AM,12.2,1.4,62,30.11,10.0,Calm,Calm,-,N/A,,Clear,0,2013-04-12 08:16:00
12:36 AM,12.2,1.4,62,30.11,10.0,Calm,Calm,-,N/A,,Clear,0,2013-04-12 08:36:00
1:16 AM,8.6,-0.4,67,30.11,10.0,Calm,Calm,-,N/A,,Clear,0,2013-04-12 09:16:00
1:36 AM,6.8,-0.4,72,30.11,10.0,Calm,Calm,-,N/A,,Clear,0,2013-04-12 09:36:00
1:56 AM,6.8,-0.4,72,30.12,10.0,Calm,Calm,-,N/A,,Clear,0,2013-04-12 09:56:00
2:16 AM,5.0,-2.2,72,30.12,10.0,Calm,Calm,-,N/A,,Clear,0,2013-04-12 10:16:00
2:36 AM,3.2,-2.2,78,30.12,10.0,Calm,Calm,-,N/A,,Clear,0,2013-04-12 10:36:00
2:56 AM,3.2,-4.0,72,30.12,10.0,Calm,Calm,-,N/A,,Clear,0,2013-04-12 10:56:00
3:16 AM,3.2,-2.2,78,30.12,10.0,Calm,Calm,-,N/A,,Clear,0,2013-04-12 11:16:00
3:36 AM,3.2,-2.2,78,30.12,10.0,Calm,Calm,-,N/A,,Clear,0,2013-04-12 11:36:00
4:16 AM,1.4,-2.2,85,30.12,10.0,ENE,3.5,-,N/A,,Clear,70,2013-04-12 12:16:00
4:36 AM,1.4,-5.8,72,30.11,10.0,Calm,Calm,-,N/A,,Clear,0,2013-04-12 12:36:00
4:56 AM,1.4,-2.2,85,30.11,10.0,Calm,Calm,-,N/A,,Clear,0,2013-04-12 12:56:00
5:16 AM,-0.4,-5.8,78,30.11,10.0,Calm,Calm,-,N/A,,Clear,0,2013-04-12 13:16:00
5:36 AM,-0.4,-5.8,78,30.11,10.0,Calm,Calm,-,N/A,,Clear,0,2013-04-12 13:36:00
5:56 AM,-0.4,-5.8,78,30.11,10.0,Calm,Calm,-,N/A,,Clear,0,2013-04-12 13:56:00
6:16 AM,-0.4,-7.6,72,30.11,10.0,Calm,Calm,-,N/A,,Clear,0,2013-04-12 14:16:00
6:56 AM,-2.2,-7.6,78,30.10,10.0,Calm,Calm,-,N/A,,Clear,0,2013-04-12 14:56:00
7:16 AM,-2.2,-7.6,78,30.10,10.0,ENE,4.6,-,N/A,,Clear,70,2013-04-12 15:16:00
7:36 AM,-2.2,-7.6,78,30.10,10.0,East,3.5,-,N/A,,Clear,80,2013-04-12 15:36:00
7:56 AM,-0.4,-2.2,92,30.11,10.0,Calm,Calm,-,N/A,,Clear,0,2013-04-12 15:56:00
8:16 AM,1.4,-2.2,85,30.11,10.0,Calm,Calm,-,N/A,,Clear,0,2013-04-12 16:16:00
8:36 AM,3.2,-2.2,78,30.11,10.0,East,3.5,-,N/A,,Clear,80,2013-04-12 16:36:00
8:56 AM,6.8,-0.4,72,30.11,10.0,Calm,Calm,-,N/A,,Clear,0,2013-04-12 16:56:00
9:16 AM,8.6,3.2,79,30.11,10.0,Calm,Calm,-,N/A,,Clear,0,2013-04-12 17:16:00
9:36 AM,10.4,3.2,73,30.11,10.0,Calm,Calm,-,N/A,,Clear,0,2013-04-12 17:36:00
9:56 AM,15.8,3.2,58,30.10,10.0,ESE,3.5,-,N/A,,Clear,110,2013-04-12 17:56:00
10:16 AM,17.6,1.4,49,30.10,10.0,East,3.5,-,N/A,,Clear,90,2013-04-12 18:16:00
10:36 AM,17.6,1.4,49,30.10,10.0,ESE,6.9,-,N/A,,Clear,110,2013-04-12 18:36:00
10:56 AM,19.4,1.4,46,30.10,10.0,NNE,3.5,-,N/A,,Clear,30,2013-04-12 18:56:00
11:16 AM,19.4,3.2,49,30.10,10.0,ENE,6.9,-,N/A,,Clear,60,2013-04-12 19:16:00
11:36 AM,21.2,1.4,42,30.10,10.0,NE,4.6,-,N/A,,Clear,40,2013-04-12 19:36:00
11:56 AM,21.2,1.4,42,30.09,10.0,North,3.5,-,N/A,,Clear,350,2013-04-12 19:56:00
12:16 PM,21.2,1.4,42,30.09,10.0,NNE,5.8,-,N/A,,Clear,20,2013-04-12 20:16:00
12:36 PM,21.2,3.2,46,30.09,10.0,NE,9.2,-,N/A,,Clear,40,2013-04-12 20:36:00
12:56 PM,23.0,1.4,39,30.09,10.0,North,5.8,-,N/A,,Clear,360,2013-04-12 20:56:00
1:16 PM,23.0,1.4,39,30.09,10.0,NNE,8.1,-,N/A,,Clear,20,2013-04-12 21:16:00
1:36 PM,24.8,1.4,36,30.08,10.0,NE,4.6,-,N/A,,Clear,50,2013-04-12 21:36:00
1:56 PM,24.8,1.4,36,30.08,10.0,NNE,9.2,-,N/A,,Clear,20,2013-04-12 21:56:00
2:16 PM,26.6,-0.4,31,30.08,10.0,NNW,6.9,-,N/A,,Clear,330,2013-04-12 22:16:00
2:36 PM,26.6,-0.4,31,30.08,10.0,North,9.2,-,N/A,,Clear,10,2013-04-12 22:36:00
2:56 PM,26.6,-0.4,31,30.08,10.0,North,9.2,-,N/A,,Clear,350,2013-04-12 22:56:00
3:16 PM,26.6,1.4,34,30.07,10.0,North,6.9,-,N/A,,Clear,360,2013-04-12 23:16:00
3:36 PM,26.6,1.4,34,30.07,10.0,NNW,10.4,16.1,N/A,,Clear,340,2013-04-12 23:36:00
3:56 PM,26.6,1.4,34,30.07,10.0,NE,9.2,-,N/A,,Clear,40,2013-04-12 23:56:00
4:16 PM,26.6,1.4,34,30.07,10.0,NNW,10.4,20.7,N/A,,Clear,330,2013-04-13 00:16:00
4:36 PM,28.4,1.4,31,30.07,10.0,NNE,10.4,-,N/A,,Clear,20,2013-04-13 00:36:00
4:56 PM,28.4,1.4,31,30.07,10.0,North,9.2,17.3,N/A,,Clear,350,2013-04-13 00:56:00
5:16 PM,28.4,3.2,34,30.07,10.0,North,9.2,16.1,N/A,,Clear,10,2013-04-13 01:16:00
5:36 PM,28.4,3.2,34,30.07,10.0,North,6.9,17.3,N/A,,Clear,360,2013-04-13 01:36:00
5:56 PM,28.4,3.2,34,30.07,10.0,North,6.9,-,N/A,,Clear,10,2013-04-13 01:56:00
6:16 PM,28.4,3.2,34,30.07,10.0,North,10.4,-,N/A,,Clear,350,2013-04-13 02:16:00
6:36 PM,28.4,3.2,34,30.07,10.0,North,6.9,-,N/A,,Clear,10,2013-04-13 02:36:00
6:56 PM,28.4,3.2,34,30.08,10.0,North,5.8,-,N/A,,Clear,350,2013-04-13 02:56:00
7:16 PM,28.4,1.4,31,30.08,10.0,NNW,8.1,-,N/A,,Clear,340,2013-04-13 03:16:00
7:36 PM,28.4,1.4,31,30.08,10.0,North,10.4,17.3,N/A,,Clear,350,2013-04-13 03:36:00
7:56 PM,26.6,5.0,40,30.08,10.0,WNW,9.2,-,N/A,,Clear,300,2013-04-13 03:56:00
8:16 PM,26.6,8.6,47,30.09,10.0,WNW,9.2,-,N/A,,Clear,300,2013-04-13 04:16:00
8:36 PM,26.6,8.6,47,30.09,10.0,WNW,9.2,-,N/A,,Clear,300,2013-04-13 04:36:00
8:56 PM,26.6,8.6,47,30.09,10.0,WNW,9.2,-,N/A,,Clear,290,2013-04-13 04:56:00
9:16 PM,26.6,8.6,47,30.09,10.0,WNW,6.9,-,N/A,,Clear,290,2013-04-13 05:16:00
9:36 PM,24.8,8.6,50,30.10,10.0,West,6.9,-,N/A,,Clear,280,2013-04-13 05:36:00
9:56 PM,24.8,8.6,50,30.11,10.0,WNW,5.8,-,N/A,,Clear,300,2013-04-13 05:56:00
10:16 PM,24.8,8.6,50,30.11,10.0,WNW,4.6,-,N/A,,Clear,300,2013-04-13 06:16:00
10:36 PM,24.8,10.4,54,30.12,10.0,NW,5.8,-,N/A,,Clear,310,2013-04-13 06:36:00
10:56 PM,21.2,6.8,54,30.12,10.0,West,4.6,-,N/A,,Clear,280,2013-04-13 06:56:00
11:16 PM,19.4,6.8,58,30.13,10.0,Calm,Calm,-,N/A,,Clear,0,2013-04-13 07:16:00
11:36 PM,21.2,8.6,58,30.13,10.0,Calm,Calm,-,N/A,,Clear,0,2013-04-13 07:36:00
11:56 PM,19.4,3.2,49,30.13,10.0,Calm,Calm,-,N/A,,Clear,0,2013-04-13 07:56:00